Glenshire Elementary, Truckee, California Weather observations

Data are for observation ending at time listed.
 Day   Time    Ave.   Ave.  Ave.  Vector   Max.   Stn.    Total    Solar   Ave.   Snow 
  of    of     Air    Rel.  Wind   Wind    Wind   Baro.  Precip.   Rad.    Soil   Depth
Year   Day     Temp.  Hum.  Speed  Dir.    Gust   Pres.                    Temp.       
2015   (PST)    F      %     mph   deg.    mph     mb.     in.     W/m2     F      in. 
---------------------------------------------------------------------------------------  
  57    3:30   22.5    76    0.4   256      0.4   821.0    0.00       0    39.0   999.0
  57    3:40   22.3    77    0.8    96      2.9   821.2    0.00       0    39.0   999.0
  57    3:50   22.1    78    0.4    91      0.4   821.1    0.00       0    39.0   999.0
  57    4:00   22.2    78    0.4    92      0.4   821.1    0.00       0    39.0   999.0
  57    4:10   22.0    78    0.4    92      0.4   821.0    0.00       0    39.0   999.0
  57    4:20   22.0    78    0.6   124      2.9   821.1    0.00       0    39.0   999.0
  57    4:30   21.7    80    0.4   120      0.4   820.8    0.00       0    39.0   999.0
  57    4:40   21.7    79    0.7   245      2.9   820.7    0.00       0    39.0   999.0
  57    4:50   21.6    78    0.4   229      0.4   820.8    0.00       0    39.0   999.0
  57    5:00   21.3    80    0.4   192      0.4   820.8    0.00       0    39.0   999.0
  57    5:10   21.1    81    0.7   228      2.9   820.8    0.00       0    39.0   999.0
  57    5:20   21.0    81    0.4    79      1.2   820.9    0.00       0    39.0   999.0
  57    5:30   20.6    82    0.4    76      0.4   820.9    0.00       0    39.0   999.0
  57    5:40   20.6    81    0.4    76      1.2   820.9    0.00       0    39.0   999.0
  57    5:50   20.6    81    0.5    76      2.1   820.7    0.00       0    39.0   999.0
  57    6:00   20.6    81    0.5   275      2.1   820.6    0.00       0    39.0   999.0
  57    6:10   20.2    82    0.7   153      2.9   820.5    0.00       0    39.0   999.0
  57    6:20   20.2    83    0.4   230      2.1   820.5    0.00       0    39.0   999.0
  57    6:30   20.1    83    0.6   190      2.9   820.4    0.00       0    39.0   999.0
  57    6:40   19.9    83    0.4   147      1.2   820.3    0.00       0    39.0   999.0
  57    6:50   19.4    84    0.5   127      2.1   820.5    0.00       0    39.0   999.0
  57    7:00   19.2    85    0.4    91      1.2   820.6    0.00       0    39.0   999.0
  57    7:10   19.6    85    0.8   226      2.1   820.8    0.00       0    39.0   999.0
  57    7:20   20.2    83    1.2   233      2.9   821.0    0.00       0    39.0   999.0
  57    7:30   20.7    83    0.4   246      1.2   821.0    0.00       0    39.0   999.0
  57    7:40   21.4    82    0.4   250      0.4   820.8    0.00      13    39.0   999.0
  57    7:50   22.3    80    0.4   250      0.4   820.9    0.00     129    38.9   999.0
  57    8:00   24.7    76    0.4   262      1.2   821.1    0.00     187    39.0   999.0
  57    8:10   26.3    73    0.5    77      2.9   821.3    0.00      77    39.0   999.0
  57    8:20   26.6    72    1.2    64      2.9   821.4    0.00      43    39.0   999.0
  57    8:30   27.2    71    0.5    40      2.1   821.3    0.00      28    39.0   999.0
  57    8:40   28.9    68    0.9   204      2.9   821.3    0.00      99    39.0   999.0
  57    8:50   30.5    66    1.5   186      3.8   821.5    0.00     184    39.0   999.0
  57    9:00   32.4    62    1.5   247      3.8   821.4    0.00     374    39.0   999.0
  57    9:10   33.9    57    1.3   208      2.9   821.4    0.00     387    39.0   999.0
  57    9:20   35.3    54    1.2   159      3.8   821.2    0.00     411    39.0   999.0
  57    9:30   37.0    53    1.3    89      4.6   821.2    0.00     451    39.0   999.0
  57    9:40   37.7    53    1.6    77      3.8   820.9    0.00     451    39.1   999.0
  57    9:50   38.4    52    2.3    68      5.4   820.8    0.00     451    39.0   999.0
  57   10:00   38.8    52    2.0    82      4.6   820.8    0.00     504    39.0   999.0
  57   10:10   40.8    50    1.8   149      7.1   820.8    0.00     523    39.0   999.0
  57   10:20   41.8    48    3.0   135      7.1   820.8    0.00     519    39.0   999.0
  57   10:30   42.4    47    3.3   137     10.5   820.8    0.00     538    39.0   999.0
  57   10:40   42.4    45    4.1   193      9.6   820.6    0.00     526    39.0   999.0
  57   10:50   42.6    44    4.5   162      9.6   820.5    0.00     552    39.0   999.0
  57   11:00   42.8    43    4.3   224     10.5   820.3    0.00     429    39.0   999.0
  57   11:10   43.4    39    5.7   210     11.3   820.3    0.00     585    39.0   999.0
  57   11:20   43.5    36    5.3   213     12.1   820.3    0.00     545    39.0   999.0
  57   11:30   43.7    35    4.7   208     12.1   820.3    0.00     542    39.0   999.0
  57   11:40   43.8    33    4.4   211     13.0   820.2    0.00     574    39.0   999.0
  57   11:50   44.0    35    3.5   197      8.8   820.0    0.00     581    39.0   999.0
  57   12:00   44.5    34    3.4   220      9.6   819.7    0.00     611    39.0   999.0
  57   12:10   44.8    35    4.4   121      8.8   819.6    0.00     611    39.0   999.0
  57   12:20   45.1    35    5.1   118     10.5   819.4    0.00     611    39.0   999.0
  57   12:30   45.1    33    5.3   234     13.0   819.3    0.00     611    39.0   999.0
  57   12:40   45.4    33    5.9   225     13.0   819.1    0.00     609    39.0   999.0
  57   12:50   45.6    32    3.5   206      8.8   818.9    0.00     611    39.0   999.0
  57   13:00   46.0    32    4.6   203     10.5   818.9    0.00     609    39.0   999.0
  57   13:10   46.0    32    4.2   215      8.8   818.8    0.00     607    39.0   999.0
  57   13:20   46.7    31    4.0   169      9.6   818.7    0.00     606    39.0   999.0
  57   13:30   47.0    31    3.3   114      9.6   818.4    0.00     590    39.0   999.0
  57   13:40   47.1    30    4.6   223     13.0   818.1    0.00     546    39.0   999.0
  57   13:50   47.0    28    3.8   232      9.6   818.0    0.00     545    39.0   999.0
  57   14:00   47.6    28    4.4   154     10.5   818.0    0.00     543    39.0   999.0
  57   14:10   47.6    26    5.0   204     11.3   818.0    0.00     543    39.0   999.0
  57   14:20   47.7    26    3.7   206     10.5   818.0    0.00     517    39.0   999.0
  57   14:30   47.8    25    3.7   187     10.5   817.9    0.00     515    39.0   999.0
  57   14:40   47.6    26    2.6   165      8.0   817.7    0.00     515    39.0   999.0
  57   14:50   47.9    26    4.0   174      9.6   817.5    0.00     485    39.0   999.0
  57   15:00   48.0    25    4.8   225     10.5   817.4    0.00     451    39.0   999.0
  57   15:10   48.1    25    3.3   211      8.8   817.3    0.00     351    39.0   999.0
  57   15:20   46.7    26    2.5   102      6.3   817.3    0.00      60    39.0   999.0
  57   15:30   46.9    25    3.0   221      8.8   817.3    0.00      54    39.0   999.0
  57   15:40   46.8    25    1.6   265      4.6   817.1    0.00      65    38.9   999.0
  57   15:50   47.8    24    2.3   205      7.1   817.1    0.00     145    39.0   999.0
  57   16:00   49.4    22    3.6   121      8.0   817.2    0.00     316    39.0   999.0
  57   16:10   48.7    22    3.0   208      8.0   817.3    0.00     262    39.0   999.0
  57   16:20   48.8    22    1.9   200      6.3   817.3    0.00     257    39.0   999.0
  57   16:30   47.8    23    2.1   180      5.4   817.1    0.00     124    39.0   999.0
  57   16:40   46.8    22    2.9   218      7.1   817.0    0.00      14    38.9   999.0
  57   16:50   46.6    22    3.0   168      8.0   817.1    0.00       0    39.0   999.0
  57   17:00   46.7    22    2.4   174      7.1   817.0    0.00      35    39.0   999.0
  57   17:10   46.5    22    3.0   188      8.0   817.0    0.00      38    39.0   999.0
  57   17:20   45.5    24    3.2   184      7.1   816.8    0.00       0    38.9   999.0
  57   17:30   44.7    27    2.1   146      7.1   816.6    0.00       0    39.0   999.0
  57   17:40   43.9    29    2.7   158      8.0   816.6    0.00       0    38.9   999.0
  57   17:50   43.0    30    1.1   137      4.6   816.6    0.00       0    38.9   999.0
  57   18:00   42.0    32    1.8   137      5.4   816.7    0.00       0    38.9   999.0
  57   18:10   41.7    33    1.1   188      3.8   816.8    0.00       0    38.9   999.0
  57   18:20   41.2    34    0.5   196      2.9   816.8    0.00       0    38.9   999.0
  57   18:30   40.0    35    0.7   238      2.9   816.7    0.00       0    38.9   999.0
  57   18:40   38.1    39    0.7   285      2.1   816.6    0.00       0    38.9   999.0
  57   18:50   36.9    41    0.6   296      2.1   816.4    0.00       0    39.0   999.0
  57   19:00   35.4    43    0.4   303      0.4   816.2    0.00       0    39.0   999.0
  57   19:10   34.4    43    0.4   303      0.4   816.2    0.00       0    39.0   999.0
  57   19:20   34.2    42    0.4   351      0.4   816.1    0.00       0    39.0   999.0
  57   19:30   33.4    44    0.5   283      2.1   815.9    0.00       0    39.0   999.0
  57   19:40   32.7    45    0.4   230      0.4   815.9    0.00       0    39.0   999.0
  57   19:50   32.3    45    0.4   234      0.4   815.9    0.00       0    39.0   999.0
  57   20:00   31.7    49    0.5     3      2.1   816.0    0.00       0    39.0   999.0
  57   20:10   31.5    50    0.5    78      2.1   816.1    0.00       0    39.0   999.0
  57   20:20   32.2    48    0.4    70      0.4   816.0    0.00       0    39.0   999.0
  57   20:30   32.3    48    0.4   319      0.4   815.6    0.00       0    38.9   999.0
  57   20:40   31.7    51    0.6    74      2.1   815.5    0.00       0    38.9   999.0
  57   20:50   31.3    52    0.5    78      2.1   815.6    0.00       0    39.0   999.0
  57   21:00   31.8    50    0.4    75      1.2   815.5    0.00       0    39.0   999.0
  57   21:10   32.2    50    0.6   284      2.1   815.4    0.00       0    39.0   999.0
  57   21:20   31.9    49    0.4   265      0.4   815.3    0.00       0    39.0   999.0
  57   21:30   31.5    49    0.5   254      2.1   815.2    0.00       0    39.0   999.0
  57   21:40   31.2    52    0.5   106      2.1   815.2    0.00       0    39.0   999.0
  57   21:50   31.2    52    0.4   104      1.2   815.0    0.00       0    39.0   999.0
  57   22:00   31.4    53    0.4   242      0.4   814.8    0.00       0    38.9   999.0
  57   22:10   30.8    54    0.4   245      0.4   814.7    0.00       0    39.0   999.0
  57   22:20   29.8    55    0.4   245      0.4   814.6    0.00       0    38.9   999.0
  57   22:30   29.0    56    0.4   245      0.4   814.5    0.00       0    38.9   999.0
  57   22:40   28.3    60    0.4   191      2.1   814.5    0.00       0    39.0   999.0
  57   22:50   28.1    61    0.7    93      2.9   814.7    0.00       0    39.0   999.0
  57   23:00   28.8    60    0.8    59      2.9   814.7    0.00       0    39.0   999.0
  57   23:10   29.1    59    0.5   279      2.1   814.6    0.00       0    39.0   999.0
  57   23:20   29.3    58    1.0   241      2.9   814.4    0.00       0    39.0   999.0
  57   23:30   29.6    58    1.1   233      3.8   814.2    0.00       0    39.0   999.0
  57   23:40   29.6    59    0.8    45      3.8   814.2    0.00       0    39.0   999.0
  57   23:50   29.7    58    0.4   256      1.2   814.0    0.00       0    39.0   999.0
  58    0:00   29.8    58    0.6    95      2.9   813.9    0.00       0    38.9   999.0
  58    0:10   29.4    59    1.1    70      2.9   814.0    0.00       0    38.9   999.0
  58    0:20   29.6    58    0.4    56      0.4   813.9    0.00       0    39.0   999.0
  58    0:30   30.0    57    0.9   209      2.9   813.9    0.00       0    39.0   999.0
  58    0:40   30.0    58    0.9   211      3.8   813.9    0.00       0    39.0   999.0
  58    0:50   29.7    60    0.6   211      2.1   813.8    0.00       0    38.9   999.0
  58    1:00   29.6    60    0.4   333      2.1   813.7    0.00       0    39.0   999.0
  58    1:10   29.5    60    0.6   142      2.1   813.6    0.00       0    39.0   999.0
  58    1:20   29.4    62    0.6   198      2.1   813.4    0.00       0    39.0   999.0
  58    1:30   28.8    64    0.9   197      3.8   813.5    0.00       0    39.0   999.0
  58    1:40   28.4    65    0.9   206      2.9   813.5    0.00       0    38.9   999.0
  58    1:50   28.6    64    0.5   239      2.1   813.4    0.00       0    38.9   999.0
  58    2:00   28.7    64    0.7    12      2.9   813.4    0.00       0    39.0   999.0
  58    2:10   28.4    66    0.6    17      2.9   813.3    0.00       0    39.0   999.0
  58    2:20   28.2    66    0.8   207      3.8   813.2    0.00       0    38.9   999.0
  58    2:30   28.3    64    0.8   197      2.9   813.1    0.00       0    38.8   999.0
  58    2:40   27.9    66    1.1   237      2.9   812.9    0.00       0    38.9   999.0
  58    2:50   27.6    68    0.8   245      2.9   812.8    0.00       0    38.9   999.0
  58    3:00   27.4    68    0.6   223      2.9   812.6    0.00       0    38.9   999.0
  58    3:10   27.2    69    0.8   242      2.9   812.5    0.00       0    38.9   999.0
  58    3:20   26.8    70    0.4   245      0.4   812.3    0.00       0    38.8   999.0

Return to Glenshire Elementary graphs page.


Western Regional Climate Center,wrcc@dri.edu